WetterOnline ( https://www.wetteronline.de )

Wetter aktuell Itzehoe

Aktuelles Wetter: Itzehoe (26m)

6-stündlich | Neueste Meldungen
Ortszeit Temperatur Wetter
Do, 21.11. 7:00 3.3° C bedeckt
Do, 21.11. 1:00 3.9° C bedeckt
Mi, 20.11. 19:00 3.7° C bedeckt
Mi, 20.11. 13:00 3.3° C bedeckt
Mi, 20.11. 7:00 2.4° C Nebel
Mi, 20.11. 1:00 2.9° C fast wolkenlos
Di, 19.11. 19:00 6.4° C fast wolkenlos
Di, 19.11. 13:00 8.7° C Sprühregen
Ortszeit Temperatur Wetter
Do, 21.11. 9:00 3.5° C Sprühregen
Do, 21.11. 8:50 3.5° C Sprühregen
Do, 21.11. 8:40 3.5° C bedeckt
Do, 21.11. 8:30 3.5° C bewölkt
Do, 21.11. 8:20 3.5° C bewölkt
Do, 21.11. 8:10 3.5° C bedeckt
Do, 21.11. 8:00 3.4° C bewölkt
Do, 21.11. 7:30 3.3° C bedeckt
Do, 21.11. 7:00 3.3° C bedeckt
Do, 21.11. 6:30 2.4° C bewölkt
Do, 21.11. 6:00 2.5° C leicht bewölkt
Ortszeit Relative Feuchte Sichtweite
Do, 21.11. 7:00 98% 3.5 km
Do, 21.11. 1:00 97% 3.4 km
Mi, 20.11. 19:00 99% 4.3 km
Mi, 20.11. 13:00 99% 4.3 km
Mi, 20.11. 7:00 100% 100 m
Mi, 20.11. 1:00 97% 5.0 km
Di, 19.11. 19:00 91% 30 km
Di, 19.11. 13:00 90% 7 km
Ortszeit Relative Feuchte Sichtweite
Do, 21.11. 9:00 97% 3.5 km
Do, 21.11. 8:50 97% -
Do, 21.11. 8:40 96% -
Do, 21.11. 8:30 97% 3.4 km
Do, 21.11. 8:20 97% -
Do, 21.11. 8:10 97% -
Do, 21.11. 8:00 97% 3.2 km
Do, 21.11. 7:30 97% 3.5 km
Do, 21.11. 7:00 98% 3.5 km
Do, 21.11. 6:30 100% 1.8 km
Do, 21.11. 6:00 97% 1.8 km
Ortszeit Niederschlagsmenge Niederschlagsart
Do, 21.11. 7:00 0.1 l/m2 in 12 Std. -
Do, 21.11. 1:00 0.1 l/m2 in 6 Std. Regen
Mi, 20.11. 19:00 0.2 l/m2 in 12 Std. Regen
Mi, 20.11. 13:00 0.1 l/m2 in 6 Std. Regen
Mi, 20.11. 7:00 0.0 l/m2 in 12 Std. -
Mi, 20.11. 1:00 0.0 l/m2 in 6 Std. -
Di, 19.11. 19:00 4 l/m2 in 12 Std. Regen
Di, 19.11. 13:00 3 l/m2 in 6 Std. Regen
Ortszeit Niederschlagsmenge Niederschlagsart
Do, 21.11. 9:00 0.1 l/m2 in 1 Std. Sprühregen
Do, 21.11. 8:50 keine Meldung -
Do, 21.11. 8:40 keine Meldung -
Do, 21.11. 8:30 0.0 l/m2 in 1 Std. -
Do, 21.11. 8:20 keine Meldung -
Do, 21.11. 8:10 keine Meldung -
Do, 21.11. 8:00 0.0 l/m2 in 1 Std. -
Do, 21.11. 7:30 0.0 l/m2 in 1 Std. -
Do, 21.11. 7:00 0.0 l/m2 in 1 Std. -
Do, 21.11. 6:30 0.0 l/m2 in 1 Std. -
Do, 21.11. 6:00 0.0 l/m2 in 1 Std. -
Ortszeit Stärke Spitze Richtung
km/h Bft. km/h Grad Sektor
Do, 21.11. 7:00 6 1 15 80° O
Do, 21.11. 1:00 4 1 11 200° S
Mi, 20.11. 19:00 0 0 7 - -
Mi, 20.11. 13:00 4 1 14 180° S
Mi, 20.11. 7:00 6 1 15 190° S
Mi, 20.11. 1:00 4 1 18 170° S
Di, 19.11. 19:00 9 2 31 230° SW
Di, 19.11. 13:00 17 3 35 250° W
Ortszeit Stärke Spitze Richtung
km/h Bft. km/h Grad Sektor
Do, 21.11. 9:00 13 3 17 60° NO
Do, 21.11. 8:50 13 3 - 60° NO
Do, 21.11. 8:40 9 2 - 70° O
Do, 21.11. 8:30 9 2 13 60° NO
Do, 21.11. 8:20 9 2 - 60° NO
Do, 21.11. 8:10 9 2 - 50° NO
Do, 21.11. 8:00 7 2 11 60° NO
Do, 21.11. 7:30 6 1 7 80° O
Do, 21.11. 7:00 6 1 11 80° O
Do, 21.11. 6:30 4 1 7 110° O
Do, 21.11. 6:00 7 2 14 70° O
Ortszeit Untergrenze Bedeckung Gattung
total tief tief mittel hoch
Do, 21.11. 7:00 150 m 8/8 8/8 - - -
Do, 21.11. 1:00 60 m 8/8 8/8 - - -
Mi, 20.11. 19:00 60 m 8/8 8/8 - - -
Mi, 20.11. 13:00 60 m 8/8 8/8 - - -
Mi, 20.11. 7:00 <30 m 8/8 0/8 - - -
Mi, 20.11. 1:00 <30 m 0/8 0/8 - - -
Di, 19.11. 19:00 840 m 1/8 1/8 - - -
Di, 19.11. 13:00 360 m 8/8 8/8 - - -
Ortszeit Bedeckungsgrad in Achtel und Wolkenuntergrenze
Do, 21.11. 9:00 8(1050m)
Do, 21.11. 8:50 8(1050m)
Do, 21.11. 8:40 8(1080m)
Do, 21.11. 8:30 7(1200m)
Do, 21.11. 8:20 7(1200m)
Do, 21.11. 8:10 7(1230m) 8(1500m)
Do, 21.11. 8:00 7(1140m) 7(1500m)
Do, 21.11. 7:30 1(90m) 8(1170m)
Do, 21.11. 7:00 1(150m) 8(1200m)
Do, 21.11. 6:30 2(120m) 7(1230m)
Do, 21.11. 6:00 2(90m) 3(360m)
Ortszeit Luftdruck NN (hPa) Tendenz (hPa in 3 Std.)
Do, 21.11. 7:00 1015 - 0,7
Do, 21.11. 1:00 1016 - 0,6
Mi, 20.11. 19:00 1018 - 0,6
Mi, 20.11. 13:00 1020 - 0,7
Mi, 20.11. 7:00 1020 + 0,5
Mi, 20.11. 1:00 1019 + 1,3
Di, 19.11. 19:00 1016 + 2,2
Di, 19.11. 13:00 1012 + 3,2
Ortszeit Luftdruck NN (hPa) Tendenz (hPa in 3 Std.)
Do, 21.11. 9:00 1015 - 0,6
Do, 21.11. 8:50 1015 keine Meldung
Do, 21.11. 8:40 1015 keine Meldung
Do, 21.11. 8:30 1015 - 0,9
Do, 21.11. 8:20 1015 keine Meldung
Do, 21.11. 8:10 1015 keine Meldung
Do, 21.11. 8:00 1015 - 0,9
Do, 21.11. 7:30 1015 - 0,7
Do, 21.11. 7:00 1015 - 0,7
Do, 21.11. 6:30 1015 - 0,8
Do, 21.11. 6:00 1015 - 1,0
Ortszeit Schneehöhe (cm)
Do, 21.11. 7:00 -
Do, 21.11. 1:00 -
Mi, 20.11. 19:00 -
Mi, 20.11. 13:00 -
Mi, 20.11. 7:00 -
Mi, 20.11. 1:00 -
Di, 19.11. 19:00 -
Di, 19.11. 13:00 -
Ortszeit Schneehöhe (cm)
Do, 21.11. 9:00 -
Do, 21.11. 8:50 -
Do, 21.11. 8:40 -
Do, 21.11. 8:30 -
Do, 21.11. 8:20 -
Do, 21.11. 8:10 -
Do, 21.11. 8:00 -
Do, 21.11. 7:30 -
Do, 21.11. 7:00 -
Do, 21.11. 6:30 -
Do, 21.11. 6:00 -
Link zu dieser Seite / Seite empfehlen

Das Wetter in ...